createdAt,value
2023-03-21T00:00:02.390Z,75.11
2023-03-21T00:01:01.315Z,75.31
2023-03-21T00:02:01.340Z,75.11
2023-03-21T00:03:01.396Z,75.31
2023-03-21T00:04:01.355Z,75.52
2023-03-21T00:05:13.304Z,75.86
2023-03-21T00:06:02.298Z,76.48
2023-03-21T00:07:01.238Z,76.68
2023-03-21T00:08:02.663Z,76.89
2023-03-21T00:09:01.232Z,77.09
2023-03-21T00:10:12.371Z,76.89
2023-03-21T00:11:02.258Z,77.09
2023-03-21T00:12:01.229Z,77.29
2023-03-21T00:13:01.226Z,76.99
2023-03-21T00:14:01.186Z,77.20
2023-03-21T00:15:01.225Z,77.09
2023-03-21T00:16:07.534Z,77.20
2023-03-21T00:17:02.178Z,77.20
2023-03-21T00:18:01.146Z,77.29
2023-03-21T00:19:01.171Z,77.61
2023-03-21T00:20:01.149Z,77.50
2023-03-21T00:21:29.417Z,77.50
2023-03-21T00:22:07.860Z,77.40
2023-03-21T00:23:02.113Z,77.50
2023-03-21T00:24:01.075Z,77.20
2023-03-21T00:25:01.120Z,77.09
2023-03-21T00:26:01.136Z,77.29
2023-03-21T00:27:21.961Z,77.09
2023-03-21T00:29:02.131Z,77.20
2023-03-21T00:30:01.045Z,77.20
2023-03-21T00:31:01.203Z,77.20
2023-03-21T00:32:00.999Z,77.40
2023-03-21T00:33:05.912Z,77.20
2023-03-21T00:34:01.953Z,77.20
2023-03-21T00:35:18.718Z,77.29
2023-03-21T00:36:06.763Z,77.29
2023-03-21T00:37:01.976Z,77.40
2023-03-21T00:38:00.978Z,77.71
2023-03-21T00:39:01.049Z,77.29
2023-03-21T00:40:01.257Z,77.40
2023-03-21T00:41:04.854Z,77.40
2023-03-21T00:42:01.981Z,77.40
2023-03-21T00:43:00.884Z,77.40
2023-03-21T00:44:00.845Z,77.29
2023-03-21T00:45:00.833Z,77.40
2023-03-21T00:46:00.847Z,77.40
2023-03-21T00:47:07.629Z,77.40
2023-03-21T00:48:01.976Z,77.40
2023-03-21T00:49:00.822Z,77.20
2023-03-21T00:50:00.815Z,77.09
2023-03-21T00:51:00.828Z,77.20
2023-03-21T00:52:14.758Z,77.29
2023-03-21T00:53:01.754Z,77.09
2023-03-21T00:54:00.749Z,76.99
2023-03-21T00:55:00.771Z,77.20
2023-03-21T00:56:00.736Z,77.09
2023-03-21T00:57:00.732Z,77.20
2023-03-21T00:58:02.488Z,77.20
2023-03-21T00:59:00.714Z,77.29
2023-03-21T01:00:00.730Z,77.29
2023-03-21T01:01:00.774Z,77.40
2023-03-21T01:02:00.807Z,77.40
2023-03-21T01:03:08.520Z,77.61
2023-03-21T01:04:01.663Z,77.50
2023-03-21T01:05:00.648Z,77.61
2023-03-21T01:06:00.643Z,77.81
2023-03-21T01:07:00.631Z,77.71
2023-03-21T01:08:01.810Z,78.22
2023-03-21T01:09:00.589Z,78.53
2023-03-21T01:10:00.600Z,78.83
2023-03-21T01:11:00.592Z,78.74
2023-03-21T01:12:00.653Z,78.63
2023-03-21T01:13:00.545Z,79.24
2023-03-21T01:14:14.749Z,79.04
2023-03-21T01:15:01.578Z,79.24
2023-03-21T01:16:00.656Z,79.35
2023-03-21T01:17:00.567Z,79.45
2023-03-21T01:18:00.510Z,79.35
2023-03-21T01:19:01.150Z,79.14
2023-03-21T01:20:00.504Z,79.14
2023-03-21T01:21:00.459Z,79.55
2023-03-21T01:22:00.490Z,79.35
2023-03-21T01:23:00.460Z,79.24
2023-03-21T01:24:00.460Z,80.00
2023-03-21T01:25:12.091Z,79.80
2023-03-21T01:26:01.427Z,79.69
2023-03-21T01:27:00.434Z,80.10
2023-03-21T01:28:00.442Z,80.51
2023-03-21T01:29:00.390Z,80.82
2023-03-21T01:30:00.379Z,80.92
2023-03-21T01:31:00.349Z,80.82
2023-03-21T01:32:00.402Z,80.92
2023-03-21T01:33:00.353Z,80.82
2023-03-21T01:34:00.349Z,81.02
2023-03-21T01:35:00.335Z,81.02
2023-03-21T01:36:12.346Z,80.82
2023-03-21T01:37:01.360Z,80.92
2023-03-21T01:38:00.294Z,81.13
2023-03-21T01:39:00.291Z,81.23
2023-03-21T01:40:00.283Z,81.23
2023-03-21T01:41:00.550Z,81.23
2023-03-21T01:42:00.233Z,81.23
2023-03-21T01:43:00.245Z,80.82
2023-03-21T01:44:00.226Z,81.02
2023-03-21T01:45:00.197Z,81.23
2023-03-21T01:46:00.247Z,81.23
2023-03-21T01:47:11.512Z,81.34
2023-03-21T01:48:01.253Z,81.34
2023-03-21T01:49:00.213Z,81.02
2023-03-21T01:50:00.192Z,80.62
2023-03-21T01:51:00.178Z,80.41
2023-03-21T01:52:06.649Z,80.51
2023-03-21T01:53:01.178Z,80.72
2023-03-21T01:54:00.155Z,80.92
2023-03-21T01:55:00.112Z,81.02
2023-03-21T01:56:00.112Z,80.82
2023-03-21T01:57:00.070Z,80.72
2023-03-21T01:58:06.255Z,80.41
2023-03-21T01:59:01.073Z,80.51
2023-03-21T02:00:00.041Z,80.55
2023-03-21T02:01:00.095Z,80.45
2023-03-21T02:02:00.063Z,80.45
2023-03-21T02:03:11.131Z,80.65
2023-03-21T02:04:01.093Z,80.96
2023-03-21T02:05:00.007Z,81.06
2023-03-21T02:05:59.965Z,81.27
2023-03-21T02:07:00.033Z,81.16
2023-03-21T02:08:00.000Z,81.37
2023-03-21T02:08:59.971Z,81.54
2023-03-21T02:09:59.982Z,81.06
2023-03-21T02:10:59.929Z,80.82
2023-03-21T02:11:59.963Z,80.65
2023-03-21T02:12:59.940Z,80.76
2023-03-21T02:14:06.116Z,80.76
2023-03-21T02:15:00.955Z,80.55
2023-03-21T02:15:59.949Z,80.86
2023-03-21T02:16:59.991Z,80.96
2023-03-21T02:18:00.165Z,81.16
2023-03-21T02:19:00.005Z,81.27
2023-03-21T02:20:00.005Z,81.27
2023-03-21T02:20:59.846Z,81.48
2023-03-21T02:21:59.894Z,81.57
2023-03-21T02:22:59.828Z,81.57
2023-03-21T02:24:00.029Z,81.48
2023-03-21T02:25:04.211Z,81.68
2023-03-21T02:26:00.858Z,81.57
2023-03-21T02:27:04.312Z,81.37
2023-03-21T02:27:59.800Z,81.48
2023-03-21T02:28:59.760Z,81.57
2023-03-21T02:29:59.764Z,81.78
2023-03-21T02:30:59.790Z,82.09
2023-03-21T02:32:09.316Z,81.88
2023-03-21T02:33:00.714Z,81.99
2023-03-21T02:33:59.689Z,82.19
2023-03-21T02:35:00.747Z,82.40
2023-03-21T02:36:05.611Z,82.19
2023-03-21T02:37:00.700Z,82.29
2023-03-21T02:38:00.878Z,82.19
2023-03-21T02:38:59.665Z,82.29
2023-03-21T02:39:59.639Z,82.19
2023-03-21T02:41:01.772Z,82.40
2023-03-21T02:41:59.624Z,82.40
2023-03-21T02:43:01.279Z,82.64
2023-03-21T02:43:59.661Z,82.95
2023-03-21T02:44:59.591Z,82.84
2023-03-21T02:45:59.630Z,82.95
2023-03-21T02:47:05.917Z,83.05
2023-03-21T02:48:00.607Z,83.05
2023-03-21T02:48:59.560Z,83.26
2023-03-21T02:49:59.544Z,83.26
2023-03-21T02:50:59.652Z,83.36
2023-03-21T02:52:05.429Z,83.46
2023-03-21T02:53:00.510Z,83.56
2023-03-21T02:54:22.179Z,83.46
2023-03-21T02:55:00.551Z,83.15
2023-03-21T02:55:59.480Z,83.26
2023-03-21T02:56:59.455Z,83.26
2023-03-21T02:58:11.730Z,83.46
2023-03-21T02:59:00.477Z,83.46
2023-03-21T03:00:07.540Z,83.56
2023-03-21T03:01:00.447Z,83.67
2023-03-21T03:01:59.438Z,83.77
2023-03-21T03:03:08.630Z,83.87
2023-03-21T03:04:00.510Z,84.08
2023-03-21T03:04:59.372Z,84.08
2023-03-21T03:05:59.339Z,84.08
2023-03-21T03:06:59.360Z,84.18
2023-03-21T03:07:59.399Z,84.28
2023-03-21T03:09:02.703Z,84.49
2023-03-21T03:09:59.341Z,84.28
2023-03-21T03:10:59.432Z,84.18
2023-03-21T03:11:59.320Z,84.08
2023-03-21T03:12:59.280Z,84.08
2023-03-21T03:13:59.261Z,84.39
2023-03-21T03:15:03.538Z,84.49
2023-03-21T03:15:59.327Z,84.49
2023-03-21T03:16:59.251Z,84.39
2023-03-21T03:17:59.271Z,84.45
2023-03-21T03:18:59.271Z,84.04
2023-03-21T03:20:04.258Z,83.94
2023-03-21T03:21:00.205Z,83.94
2023-03-21T03:21:59.192Z,83.94
2023-03-21T03:22:59.214Z,83.94
2023-03-21T03:23:59.194Z,83.73
2023-03-21T03:25:02.782Z,83.83
2023-03-21T03:26:00.210Z,83.73
2023-03-21T03:26:59.123Z,83.73
2023-03-21T03:27:59.164Z,83.83
2023-03-21T03:28:59.124Z,83.94
2023-03-21T03:29:59.220Z,84.04
2023-03-21T03:31:08.611Z,84.14
2023-03-21T03:32:00.126Z,84.34
2023-03-21T03:32:59.086Z,84.34
2023-03-21T03:33:59.087Z,84.34
2023-03-21T03:34:59.048Z,84.55
2023-03-21T03:36:06.245Z,84.76
2023-03-21T03:37:00.089Z,85.11
2023-03-21T03:37:59.064Z,85.21
2023-03-21T03:38:59.009Z,85.52
2023-03-21T03:39:59.005Z,85.62
2023-03-21T03:40:59.042Z,85.82
2023-03-21T03:42:12.453Z,86.24
2023-03-21T03:42:59.977Z,86.65
2023-03-21T03:43:58.955Z,86.65
2023-03-21T03:44:58.926Z,86.85
2023-03-21T03:45:58.977Z,87.05
2023-03-21T03:46:58.915Z,87.05
2023-03-21T03:47:58.952Z,86.95
2023-03-21T03:48:58.907Z,87.05
2023-03-21T03:49:58.878Z,86.85
2023-03-21T03:50:58.926Z,86.85
2023-03-21T03:51:58.875Z,87.05
2023-03-21T03:53:01.207Z,87.16
2023-03-21T03:53:58.832Z,87.26
2023-03-21T03:54:58.867Z,87.16
2023-03-21T03:55:58.823Z,87.05
2023-03-21T03:56:58.809Z,87.26
2023-03-21T03:57:58.799Z,87.37
2023-03-21T03:58:58.829Z,87.92
2023-03-21T03:59:58.763Z,88.23
2023-03-21T04:00:58.772Z,88.33
2023-03-21T04:01:58.743Z,88.43
2023-03-21T04:02:58.786Z,88.84
2023-03-21T04:04:12.250Z,89.15
2023-03-21T04:04:59.753Z,89.15
2023-03-21T04:05:58.708Z,89.15
2023-03-21T04:06:58.727Z,89.25
2023-03-21T04:07:58.734Z,89.21
2023-03-21T04:09:00.137Z,89.04
2023-03-21T04:09:58.670Z,89.36
2023-03-21T04:10:58.645Z,89.87
2023-03-21T04:11:58.652Z,90.08
2023-03-21T04:12:58.674Z,90.28
2023-03-21T04:13:58.643Z,90.38
2023-03-21T04:15:08.157Z,90.42
2023-03-21T04:15:59.696Z,90.63
2023-03-21T04:16:58.615Z,90.83
2023-03-21T04:17:58.594Z,90.63
2023-03-21T04:18:58.607Z,90.42
2023-03-21T04:20:10.969Z,90.38
2023-03-21T04:20:59.588Z,90.38
2023-03-21T04:21:58.528Z,90.48
2023-03-21T04:22:58.545Z,90.59
2023-03-21T04:23:58.620Z,90.48
2023-03-21T04:25:00.261Z,90.38
2023-03-21T04:25:58.515Z,90.03
2023-03-21T04:26:58.522Z,89.72
2023-03-21T04:27:58.484Z,89.62
2023-03-21T04:28:58.505Z,89.42
2023-03-21T04:29:58.493Z,89.31
2023-03-21T04:31:03.687Z,89.21
2023-03-21T04:31:59.465Z,89.21
2023-03-21T04:32:58.418Z,89.21
2023-03-21T04:33:58.391Z,89.11
2023-03-21T04:34:58.408Z,89.01
2023-03-21T04:35:58.425Z,89.01
2023-03-21T04:36:58.373Z,88.80
2023-03-21T04:37:58.380Z,88.70
2023-03-21T04:38:58.351Z,88.59
2023-03-21T04:39:58.278Z,88.39
2023-03-21T04:40:58.268Z,88.59
2023-03-21T04:41:58.267Z,89.11
2023-03-21T04:42:58.277Z,89.31
2023-03-21T04:43:58.361Z,89.31
2023-03-21T04:44:58.383Z,89.56
2023-03-21T04:45:58.290Z,89.87
2023-03-21T04:46:58.226Z,90.08
2023-03-21T04:47:58.267Z,90.38
2023-03-21T04:48:58.197Z,90.08
2023-03-21T04:49:58.175Z,89.97
2023-03-21T04:50:58.227Z,89.87
2023-03-21T04:51:58.147Z,89.76
2023-03-21T04:52:58.209Z,90.08
2023-03-21T04:53:58.179Z,90.28
2023-03-21T04:54:58.208Z,90.38
2023-03-21T04:55:58.162Z,90.38
2023-03-21T04:56:58.177Z,89.97
2023-03-21T04:57:58.110Z,90.18
2023-03-21T04:58:58.118Z,90.28
2023-03-21T04:59:58.076Z,90.38
2023-03-21T05:00:58.144Z,90.59
2023-03-21T05:01:58.092Z,90.69
2023-03-21T05:02:58.048Z,90.83
2023-03-21T05:03:58.142Z,90.83
2023-03-21T05:04:58.041Z,91.04
2023-03-21T05:05:58.848Z,91.25
2023-03-21T05:06:58.022Z,91.45
2023-03-21T05:07:58.002Z,91.66
2023-03-21T05:08:57.967Z,91.86
2023-03-21T05:09:57.980Z,92.07
2023-03-21T05:10:57.997Z,92.27
2023-03-21T05:11:58.010Z,92.27
2023-03-21T05:12:57.949Z,92.38
2023-03-21T05:13:57.925Z,92.48
2023-03-21T05:14:57.944Z,92.79
2023-03-21T05:15:57.894Z,92.17
2023-03-21T05:16:57.976Z,92.27
2023-03-21T05:17:57.880Z,92.07
2023-03-21T05:18:57.858Z,91.97
2023-03-21T05:19:57.869Z,91.86
2023-03-21T05:20:57.859Z,92.07
2023-03-21T05:21:57.899Z,91.93
2023-03-21T05:22:57.824Z,91.41
2023-03-21T05:23:57.809Z,91.20
2023-03-21T05:24:57.853Z,91.41
2023-03-21T05:25:57.863Z,91.51
2023-03-21T05:26:58.369Z,91.20
2023-03-21T05:27:57.782Z,91.20
2023-03-21T05:28:57.773Z,91.31
2023-03-21T05:29:57.760Z,91.10
2023-03-21T05:30:57.826Z,91.06
2023-03-21T05:31:57.725Z,90.85
2023-03-21T05:32:57.743Z,90.75
2023-03-21T05:33:57.744Z,90.65
2023-03-21T05:34:57.742Z,90.44
2023-03-21T05:35:57.734Z,90.34
2023-03-21T05:36:57.669Z,90.44
2023-03-21T05:37:57.671Z,90.61
2023-03-21T05:38:57.688Z,90.44
2023-03-21T05:39:57.683Z,90.65
2023-03-21T05:40:57.631Z,90.75
2023-03-21T05:41:57.683Z,90.95
2023-03-21T05:42:57.750Z,91.06
2023-03-21T05:43:57.654Z,91.37
2023-03-21T05:44:57.630Z,91.47
2023-03-21T05:45:57.605Z,91.37
2023-03-21T05:46:57.770Z,91.37
2023-03-21T05:47:57.672Z,91.37
2023-03-21T05:48:57.544Z,91.57
2023-03-21T05:49:57.564Z,91.78
2023-03-21T05:50:57.537Z,91.78
2023-03-21T05:51:57.538Z,91.78
2023-03-21T05:52:57.568Z,91.47
2023-03-21T05:53:57.658Z,91.57
2023-03-21T05:54:57.495Z,91.47
2023-03-21T05:55:57.491Z,91.53
2023-03-21T05:56:57.517Z,91.33
2023-03-21T05:57:57.470Z,91.37
2023-03-21T05:58:57.467Z,91.88
2023-03-21T05:59:57.549Z,92.08
2023-03-21T06:00:57.517Z,92.60
2023-03-21T06:01:57.417Z,92.29
2023-03-21T06:02:57.470Z,92.23
2023-03-21T06:03:57.483Z,92.54
2023-03-21T06:04:57.413Z,92.74
2023-03-21T06:05:57.470Z,92.70
2023-03-21T06:06:57.388Z,92.50
2023-03-21T06:07:57.395Z,92.29
2023-03-21T06:08:57.403Z,91.99
2023-03-21T06:09:57.332Z,91.78
2023-03-21T06:10:57.346Z,91.88
2023-03-21T06:11:57.308Z,91.78
2023-03-21T06:12:57.307Z,91.78
2023-03-21T06:13:57.285Z,91.57
2023-03-21T06:14:57.283Z,91.57
2023-03-21T06:15:57.367Z,91.88
2023-03-21T06:16:57.301Z,92.33
2023-03-21T06:17:57.352Z,92.50
2023-03-21T06:18:57.374Z,92.50
2023-03-21T06:19:57.253Z,92.60
2023-03-21T06:20:57.278Z,92.19
2023-03-21T06:21:57.246Z,92.19
2023-03-21T06:22:57.285Z,92.29
2023-03-21T06:23:57.291Z,92.29
2023-03-21T06:24:57.185Z,91.88
2023-03-21T06:25:57.226Z,91.53
2023-03-21T06:26:57.208Z,91.33
2023-03-21T06:27:57.157Z,91.42
2023-03-21T06:28:57.152Z,91.22
2023-03-21T06:29:57.142Z,91.12
2023-03-21T06:30:57.150Z,91.12
2023-03-21T06:31:57.318Z,90.91
2023-03-21T06:32:57.165Z,90.71
2023-03-21T06:33:57.137Z,90.71
2023-03-21T06:34:57.150Z,90.56
2023-03-21T06:35:57.166Z,90.50
2023-03-21T06:36:57.054Z,90.36
2023-03-21T06:37:57.091Z,90.40
2023-03-21T06:38:57.107Z,90.50
2023-03-21T06:39:56.993Z,90.61
2023-03-21T06:40:57.014Z,90.56
2023-03-21T06:41:57.039Z,90.46
2023-03-21T06:42:57.059Z,90.36
2023-03-21T06:43:56.987Z,90.36
2023-03-21T06:44:57.050Z,90.36
2023-03-21T06:45:56.963Z,90.20
2023-03-21T06:46:57.014Z,90.61
2023-03-21T06:47:56.982Z,90.61
2023-03-21T06:48:57.076Z,90.71
2023-03-21T06:49:56.914Z,90.81
2023-03-21T06:50:56.923Z,90.67
2023-03-21T06:51:56.875Z,90.56
2023-03-21T06:52:56.907Z,90.36
2023-03-21T06:53:56.889Z,90.05
2023-03-21T06:54:56.964Z,90.05
2023-03-21T06:55:56.928Z,90.05
2023-03-21T06:56:56.917Z,90.05
2023-03-21T06:57:56.980Z,90.05
2023-03-21T06:58:56.831Z,90.16
2023-03-21T06:59:56.821Z,90.26
2023-03-21T07:00:56.814Z,90.16
2023-03-21T07:01:56.785Z,90.16
2023-03-21T07:02:56.877Z,90.11
2023-03-21T07:03:56.761Z,89.81
2023-03-21T07:04:56.793Z,90.16
2023-03-21T07:05:56.893Z,90.16
2023-03-21T07:06:56.774Z,90.26
2023-03-21T07:07:56.740Z,90.11
2023-03-21T07:08:56.703Z,90.01
2023-03-21T07:09:56.683Z,89.90
2023-03-21T07:10:56.709Z,90.01
2023-03-21T07:11:56.710Z,90.36
2023-03-21T07:12:56.677Z,90.56
2023-03-21T07:13:56.666Z,90.87
2023-03-21T07:14:56.687Z,90.77
2023-03-21T07:15:56.705Z,90.67
2023-03-21T07:16:56.757Z,90.77
2023-03-21T07:17:56.661Z,90.87
2023-03-21T07:18:56.639Z,90.77
2023-03-21T07:19:56.694Z,91.28
2023-03-21T07:20:56.796Z,91.28
2023-03-21T07:21:56.603Z,91.49
2023-03-21T07:22:56.696Z,91.80
2023-03-21T07:23:56.724Z,92.10
2023-03-21T07:25:04.770Z,92.31
2023-03-21T07:25:57.604Z,92.35
2023-03-21T07:26:56.508Z,92.51
2023-03-21T07:27:56.526Z,92.41
2023-03-21T07:28:56.498Z,92.61
2023-03-21T07:29:56.537Z,92.61
2023-03-21T07:30:56.496Z,92.41
2023-03-21T07:31:56.541Z,92.61
2023-03-21T07:32:56.545Z,92.93
2023-03-21T07:33:56.437Z,92.82
2023-03-21T07:34:56.506Z,92.93
2023-03-21T07:35:56.512Z,92.93
2023-03-21T07:36:56.422Z,92.93
2023-03-21T07:37:56.386Z,92.82
2023-03-21T07:38:56.447Z,92.82
2023-03-21T07:39:56.386Z,93.13
2023-03-21T07:40:56.405Z,93.13
2023-03-21T07:41:56.497Z,93.23
2023-03-21T07:42:56.409Z,92.93
2023-03-21T07:43:56.511Z,93.23
2023-03-21T07:44:56.331Z,93.54
2023-03-21T07:45:56.376Z,93.44
2023-03-21T07:46:56.332Z,93.33
2023-03-21T07:47:56.330Z,93.33
2023-03-21T07:48:56.278Z,93.33
2023-03-21T07:49:56.273Z,93.23
2023-03-21T07:50:56.278Z,93.23
2023-03-21T07:51:56.407Z,93.33
2023-03-21T07:52:56.420Z,93.33
2023-03-21T07:53:56.305Z,93.44
2023-03-21T07:54:56.260Z,93.49
2023-03-21T07:55:56.334Z,93.29
2023-03-21T07:56:56.181Z,93.19
2023-03-21T07:57:56.223Z,93.08
2023-03-21T07:58:56.192Z,93.08
2023-03-21T07:59:56.197Z,93.19
2023-03-21T08:00:56.204Z,93.19
2023-03-21T08:01:56.194Z,93.39
2023-03-21T08:02:58.763Z,93.39
2023-03-21T08:03:56.525Z,93.39
2023-03-21T08:04:56.110Z,93.49
2023-03-21T08:05:56.392Z,93.49
2023-03-21T08:06:56.169Z,93.60
2023-03-21T08:07:56.086Z,93.70
2023-03-21T08:08:56.127Z,94.01
2023-03-21T08:09:56.072Z,94.11
2023-03-21T08:10:56.148Z,94.05
2023-03-21T08:11:56.115Z,94.15
2023-03-21T08:12:56.023Z,94.46
2023-03-21T08:13:56.063Z,94.42
2023-03-21T08:14:56.050Z,94.21
2023-03-21T08:15:56.023Z,93.90
2023-03-21T08:16:56.078Z,93.80
2023-03-21T08:17:55.963Z,93.70
2023-03-21T08:18:55.955Z,93.70
2023-03-21T08:19:56.078Z,93.70
2023-03-21T08:20:56.043Z,93.80
2023-03-21T08:21:55.943Z,93.60
2023-03-21T08:22:55.959Z,94.01
2023-03-21T08:23:55.945Z,94.21
2023-03-21T08:24:56.045Z,94.21
2023-03-21T08:25:55.923Z,94.11
2023-03-21T08:26:55.898Z,93.90
2023-03-21T08:27:55.898Z,94.21
2023-03-21T08:28:55.896Z,94.17
2023-03-21T08:29:55.926Z,93.86
2023-03-21T08:30:55.865Z,93.55
2023-03-21T08:31:55.876Z,93.15
2023-03-21T08:32:55.840Z,93.35
2023-03-21T08:33:55.836Z,93.45
2023-03-21T08:34:55.803Z,93.35
2023-03-21T08:35:55.834Z,93.15
2023-03-21T08:36:55.776Z,93.25
2023-03-21T08:37:55.753Z,93.30
2023-03-21T08:38:55.754Z,93.30
2023-03-21T08:39:55.872Z,92.90
2023-03-21T08:40:55.791Z,92.49
2023-03-21T08:41:55.760Z,92.38
2023-03-21T08:42:55.875Z,92.28
2023-03-21T08:43:55.707Z,92.28
2023-03-21T08:44:55.753Z,92.38
2023-03-21T08:45:55.694Z,92.69
2023-03-21T08:46:55.657Z,92.65
2023-03-21T08:47:55.725Z,92.85
2023-03-21T08:48:55.643Z,92.65
2023-03-21T08:49:57.926Z,92.75
2023-03-21T08:50:55.630Z,93.16
2023-03-21T08:51:55.602Z,93.26
2023-03-21T08:52:55.660Z,93.12
2023-03-21T08:53:55.595Z,92.96
2023-03-21T08:54:55.625Z,93.32
2023-03-21T08:55:55.603Z,93.22
2023-03-21T08:56:55.645Z,92.81
2023-03-21T08:57:55.669Z,92.46
2023-03-21T08:58:55.525Z,91.74
2023-03-21T08:59:55.603Z,91.74
2023-03-21T09:00:55.503Z,91.74
2023-03-21T09:01:55.558Z,92.05
2023-03-21T09:02:55.575Z,92.05
2023-03-21T09:03:55.524Z,92.46
2023-03-21T09:04:55.503Z,92.46
2023-03-21T09:05:55.490Z,92.46
2023-03-21T09:06:55.443Z,92.40
2023-03-21T09:07:55.592Z,92.30
2023-03-21T09:08:55.395Z,92.24
2023-03-21T09:10:08.405Z,93.30
2023-03-21T09:10:56.445Z,94.43
2023-03-21T09:11:55.520Z,94.95
2023-03-21T09:12:55.527Z,95.15
2023-03-21T09:13:55.412Z,95.05
2023-03-21T09:14:55.426Z,95.00
2023-03-21T09:15:55.436Z,94.29
2023-03-21T09:16:55.381Z,94.33
2023-03-21T09:17:55.365Z,94.68
2023-03-21T09:18:55.333Z,95.20
2023-03-21T09:19:55.329Z,95.29
2023-03-21T09:20:55.328Z,95.81
2023-03-21T09:21:55.268Z,95.76
2023-03-21T09:22:55.286Z,95.76
2023-03-21T09:23:55.263Z,95.76
2023-03-21T09:24:55.261Z,95.76
2023-03-21T09:25:55.239Z,95.20
2023-03-21T09:26:55.238Z,95.91
2023-03-21T09:27:55.243Z,96.32
2023-03-21T09:28:55.325Z,96.22
2023-03-21T09:29:55.198Z,95.91
2023-03-21T09:30:55.271Z,96.01
2023-03-21T09:31:55.269Z,95.76
2023-03-21T09:32:55.316Z,95.66
2023-03-21T09:33:55.172Z,95.56
2023-03-21T09:34:55.167Z,95.31
2023-03-21T09:35:55.252Z,95.00
2023-03-21T09:36:55.222Z,94.59
2023-03-21T09:37:55.234Z,94.39
2023-03-21T09:38:55.119Z,94.39
2023-03-21T09:39:55.071Z,94.70
2023-03-21T09:40:55.148Z,94.39
2023-03-21T09:41:55.135Z,94.39
2023-03-21T09:42:55.130Z,94.55
2023-03-21T09:43:55.151Z,94.34
2023-03-21T09:44:55.136Z,93.73
2023-03-21T09:45:55.061Z,93.63
2023-03-21T09:46:55.104Z,93.52
2023-03-21T09:47:55.056Z,93.84
2023-03-21T09:48:57.416Z,93.63
2023-03-21T09:50:01.689Z,93.43
2023-03-21T09:50:56.052Z,93.73
2023-03-21T09:51:54.954Z,94.18
2023-03-21T09:52:54.966Z,94.24
2023-03-21T09:53:56.965Z,94.45
2023-03-21T09:54:54.977Z,94.45
2023-03-21T09:55:55.021Z,94.14
2023-03-21T09:56:54.928Z,93.67
2023-03-21T09:57:54.899Z,94.08
2023-03-21T09:58:54.919Z,94.39
2023-03-21T09:59:54.910Z,94.29
2023-03-21T10:00:55.068Z,94.84
2023-03-21T10:01:54.851Z,95.10
2023-03-21T10:02:57.364Z,95.10
2023-03-21T10:03:54.850Z,95.21
2023-03-21T10:04:54.884Z,94.70
2023-03-21T10:05:54.821Z,94.18
2023-03-21T10:06:54.874Z,93.47
2023-03-21T10:07:54.843Z,93.52
2023-03-21T10:08:57.032Z,93.52
2023-03-21T10:09:54.806Z,92.91
2023-03-21T10:10:54.851Z,92.81
2023-03-21T10:11:54.829Z,92.96
2023-03-21T10:12:55.058Z,92.85
2023-03-21T10:13:54.789Z,92.91
2023-03-21T10:14:57.492Z,93.01
2023-03-21T10:15:54.741Z,92.81
2023-03-21T10:16:54.851Z,91.95
2023-03-21T10:17:54.674Z,91.99
2023-03-21T10:18:54.669Z,91.74
2023-03-21T10:19:54.734Z,91.85
2023-03-21T10:20:54.663Z,91.64
2023-03-21T10:22:03.697Z,91.23
2023-03-21T10:22:55.668Z,91.13
2023-03-21T10:23:54.680Z,90.82
2023-03-21T10:24:54.638Z,90.92
2023-03-21T10:25:54.634Z,90.92
2023-03-21T10:26:54.660Z,90.92
2023-03-21T10:27:54.603Z,90.92
2023-03-21T10:28:54.604Z,90.92
2023-03-21T10:29:54.566Z,90.78
2023-03-21T10:30:54.564Z,90.37
2023-03-21T10:31:54.637Z,89.65
2023-03-21T10:32:54.670Z,89.51
2023-03-21T10:33:54.509Z,89.82
2023-03-21T10:34:57.567Z,89.41
2023-03-21T10:35:54.571Z,89.72
2023-03-21T10:36:54.495Z,89.51
2023-03-21T10:37:54.489Z,89.31
2023-03-21T10:38:54.518Z,89.00
2023-03-21T10:39:54.463Z,88.49
2023-03-21T10:40:54.508Z,89.00
2023-03-21T10:41:55.369Z,89.04
2023-03-21T10:42:54.520Z,89.35
2023-03-21T10:43:54.390Z,89.31
2023-03-21T10:44:54.408Z,89.20
2023-03-21T10:45:54.765Z,89.11
2023-03-21T10:46:54.749Z,88.70
2023-03-21T10:47:54.757Z,88.35
2023-03-21T10:48:54.464Z,88.14
2023-03-21T10:50:07.374Z,87.70
2023-03-21T10:50:55.399Z,86.67
2023-03-21T10:51:54.313Z,86.67
2023-03-21T10:52:54.345Z,86.88
2023-03-21T10:53:54.337Z,86.47
2023-03-21T10:54:54.311Z,86.16
2023-03-21T10:55:54.295Z,86.06
2023-03-21T10:56:54.282Z,86.47
2023-03-21T10:57:54.263Z,86.77
2023-03-21T10:58:54.254Z,86.73
2023-03-21T10:59:54.309Z,86.33
2023-03-21T11:00:54.295Z,85.55
2023-03-21T11:01:54.209Z,85.96
2023-03-21T11:02:54.255Z,86.16
2023-03-21T11:03:54.242Z,86.16
2023-03-21T11:04:54.215Z,86.00
2023-03-21T11:05:54.185Z,86.71
2023-03-21T11:06:54.175Z,87.23
2023-03-21T11:07:54.145Z,87.26
2023-03-21T11:08:54.173Z,87.67
2023-03-21T11:09:54.174Z,87.98
2023-03-21T11:10:54.129Z,87.98
2023-03-21T11:11:54.175Z,87.84
2023-03-21T11:12:54.119Z,87.63
2023-03-21T11:13:54.939Z,87.53
2023-03-21T11:14:54.093Z,87.47
2023-03-21T11:15:54.082Z,87.37
2023-03-21T11:16:54.120Z,87.88
2023-03-21T11:17:54.059Z,88.18
2023-03-21T11:18:54.050Z,87.94
2023-03-21T11:19:54.065Z,87.43
2023-03-21T11:20:54.033Z,87.12
2023-03-21T11:21:54.001Z,87.08
2023-03-21T11:22:54.000Z,86.77
2023-03-21T11:23:54.012Z,86.57
2023-03-21T11:24:53.982Z,86.26
2023-03-21T11:25:53.975Z,85.96
2023-03-21T11:26:53.971Z,85.86
2023-03-21T11:27:53.964Z,85.92
2023-03-21T11:28:53.958Z,85.41
2023-03-21T11:29:53.948Z,85.71
2023-03-21T11:30:53.973Z,85.51
2023-03-21T11:31:53.909Z,85.30
2023-03-21T11:32:53.887Z,85.45
2023-03-21T11:33:53.974Z,85.75
2023-03-21T11:34:53.927Z,85.86
2023-03-21T11:35:53.875Z,85.75
2023-03-21T11:36:53.841Z,85.86
2023-03-21T11:37:53.886Z,85.51
2023-03-21T11:38:53.862Z,85.10
2023-03-21T11:39:53.810Z,85.21
2023-03-21T11:40:53.904Z,85.00
2023-03-21T11:41:53.794Z,84.80
2023-03-21T11:42:53.781Z,84.59
2023-03-21T11:43:53.818Z,84.59
2023-03-21T11:44:53.758Z,84.49
2023-03-21T11:45:53.783Z,84.90
2023-03-21T11:46:54.414Z,85.00
2023-03-21T11:47:53.776Z,85.00
2023-03-21T11:48:53.732Z,85.30
2023-03-21T11:50:04.194Z,85.21
2023-03-21T11:50:54.715Z,84.86
2023-03-21T11:51:53.701Z,84.55
2023-03-21T11:52:53.682Z,84.45
2023-03-21T11:53:53.736Z,84.55
2023-03-21T11:54:53.646Z,84.14
2023-03-21T11:55:53.643Z,83.73
2023-03-21T11:56:53.675Z,83.84
2023-03-21T11:57:54.832Z,84.14
2023-03-21T11:58:53.704Z,84.34
2023-03-21T11:59:53.601Z,84.66
2023-03-21T12:00:53.613Z,84.45
2023-03-21T12:01:53.621Z,84.34
2023-03-21T12:02:53.698Z,84.00
2023-03-21T12:03:54.789Z,83.70
2023-03-21T12:04:53.599Z,83.39
2023-03-21T12:05:53.552Z,83.25
2023-03-21T12:06:53.509Z,82.64
2023-03-21T12:07:53.532Z,82.29
2023-03-21T12:08:53.556Z,81.68
2023-03-21T12:09:53.584Z,81.68
2023-03-21T12:10:53.498Z,81.27
2023-03-21T12:11:53.506Z,81.07
2023-03-21T12:12:53.543Z,81.04
2023-03-21T12:13:53.473Z,80.73
2023-03-21T12:14:53.611Z,81.13
2023-03-21T12:15:55.426Z,81.24
2023-03-21T12:16:54.477Z,81.13
2023-03-21T12:17:54.113Z,80.63
2023-03-21T12:18:54.882Z,80.73
2023-03-21T12:19:53.416Z,80.73
2023-03-21T12:20:53.442Z,80.73
2023-03-21T12:21:54.821Z,80.52
2023-03-21T12:22:53.384Z,80.32
2023-03-21T12:23:53.358Z,80.73
2023-03-21T12:24:53.454Z,80.73
2023-03-21T12:25:53.369Z,80.63
2023-03-21T12:26:53.404Z,80.93
2023-03-21T12:27:53.549Z,80.93
2023-03-21T12:28:53.406Z,80.73
2023-03-21T12:29:53.318Z,80.83
2023-03-21T12:30:53.418Z,80.83
2023-03-21T12:31:53.399Z,80.97
2023-03-21T12:32:53.320Z,81.38
2023-03-21T12:33:53.472Z,81.58
2023-03-21T12:34:53.240Z,81.48
2023-03-21T12:35:53.265Z,81.17
2023-03-21T12:36:53.226Z,81.13
2023-03-21T12:37:54.991Z,81.04
2023-03-21T12:38:53.239Z,81.13
2023-03-21T12:39:53.197Z,80.93
2023-03-21T12:40:53.232Z,81.04
2023-03-21T12:41:53.242Z,81.07
2023-03-21T12:42:53.123Z,81.48
2023-03-21T12:43:55.220Z,81.79
2023-03-21T12:44:54.006Z,82.19
2023-03-21T12:45:54.132Z,82.23
2023-03-21T12:46:53.173Z,82.64
2023-03-21T12:47:53.178Z,82.64
2023-03-21T12:48:53.161Z,82.94
2023-03-21T12:49:55.185Z,82.84
2023-03-21T12:50:53.134Z,82.70
2023-03-21T12:51:53.157Z,82.19
2023-03-21T12:52:53.093Z,81.88